sensor_id;sensor_type;location;lat;lon;timestamp;P1;durP1;ratioP1;P2;durP2;ratioP2
71290;SDS011;59073;51.994;4.448;2023-04-01T00:01:18;14.75;;;10.24;;
71290;SDS011;59073;51.994;4.448;2023-04-01T00:03:43;11.84;;;8.39;;
71290;SDS011;59073;51.994;4.448;2023-04-01T00:06:11;12.97;;;9.16;;
71290;SDS011;59073;51.994;4.448;2023-04-01T00:08:39;13.53;;;9.38;;
71290;SDS011;59073;51.994;4.448;2023-04-01T00:11:05;13.02;;;9.12;;
71290;SDS011;59073;51.994;4.448;2023-04-01T00:13:30;12.30;;;8.70;;
71290;SDS011;59073;51.994;4.448;2023-04-01T00:15:56;10.71;;;7.79;;
71290;SDS011;59073;51.994;4.448;2023-04-01T00:18:21;11.51;;;8.38;;
71290;SDS011;59073;51.994;4.448;2023-04-01T00:20:48;10.16;;;7.53;;
71290;SDS011;59073;51.994;4.448;2023-04-01T00:23:15;10.31;;;7.78;;
71290;SDS011;59073;51.994;4.448;2023-04-01T00:25:41;10.28;;;7.84;;
71290;SDS011;59073;51.994;4.448;2023-04-01T00:28:08;10.09;;;7.67;;
71290;SDS011;59073;51.994;4.448;2023-04-01T00:30:35;9.90;;;7.27;;
71290;SDS011;59073;51.994;4.448;2023-04-01T00:33:00;11.03;;;8.02;;
71290;SDS011;59073;51.994;4.448;2023-04-01T00:35:26;12.33;;;8.71;;
71290;SDS011;59073;51.994;4.448;2023-04-01T00:37:51;11.93;;;8.42;;
71290;SDS011;59073;51.994;4.448;2023-04-01T00:40:24;11.07;;;7.99;;
71290;SDS011;59073;51.994;4.448;2023-04-01T00:42:51;11.05;;;8.31;;
71290;SDS011;59073;51.994;4.448;2023-04-01T00:47:50;10.00;;;7.72;;
71290;SDS011;59073;51.994;4.448;2023-04-01T00:50:15;9.13;;;7.14;;
71290;SDS011;59073;51.994;4.448;2023-04-01T00:52:41;11.76;;;9.03;;
71290;SDS011;59073;51.994;4.448;2023-04-01T00:55:07;10.50;;;8.17;;
71290;SDS011;59073;51.994;4.448;2023-04-01T00:57:38;8.74;;;7.11;;
71290;SDS011;59073;51.994;4.448;2023-04-01T01:00:09;10.55;;;8.10;;
71290;SDS011;59073;51.994;4.448;2023-04-01T01:02:38;9.62;;;7.53;;
71290;SDS011;59073;51.994;4.448;2023-04-01T01:05:07;10.82;;;8.61;;
71290;SDS011;59073;51.994;4.448;2023-04-01T01:07:56;8.45;;;6.79;;
71290;SDS011;59073;51.994;4.448;2023-04-01T01:10:34;8.12;;;6.39;;
71290;SDS011;59073;51.994;4.448;2023-04-01T01:13:16;7.09;;;5.52;;
71290;SDS011;59073;51.994;4.448;2023-04-01T01:16:01;7.69;;;6.18;;
71290;SDS011;59073;51.994;4.448;2023-04-01T01:18:35;7.03;;;5.96;;
71290;SDS011;59073;51.994;4.448;2023-04-01T01:24:25;5.58;;;4.80;;
71290;SDS011;59073;51.994;4.448;2023-04-01T01:29:40;6.25;;;5.13;;
71290;SDS011;59073;51.994;4.448;2023-04-01T01:35:33;6.72;;;5.37;;
71290;SDS011;59073;51.994;4.448;2023-04-01T01:38:04;5.77;;;4.65;;
71290;SDS011;59073;51.994;4.448;2023-04-01T01:40:34;5.53;;;4.55;;
71290;SDS011;59073;51.994;4.448;2023-04-01T01:43:05;5.80;;;4.71;;
71290;SDS011;59073;51.994;4.448;2023-04-01T01:45:35;6.49;;;5.23;;
71290;SDS011;59073;51.994;4.448;2023-04-01T01:48:07;5.40;;;4.46;;
71290;SDS011;59073;51.994;4.448;2023-04-01T01:50:35;5.03;;;4.30;;
71290;SDS011;59073;51.994;4.448;2023-04-01T01:53:03;4.68;;;4.02;;
71290;SDS011;59073;51.994;4.448;2023-04-01T01:55:36;5.00;;;4.41;;
71290;SDS011;59073;51.994;4.448;2023-04-01T01:58:16;4.55;;;4.03;;
71290;SDS011;59073;51.994;4.448;2023-04-01T02:00:59;4.54;;;4.09;;
71290;SDS011;59073;51.994;4.448;2023-04-01T02:03:30;3.94;;;3.61;;
71290;SDS011;59073;51.994;4.448;2023-04-01T02:06:00;3.62;;;3.29;;
71290;SDS011;59073;51.994;4.448;2023-04-01T02:08:34;3.94;;;3.54;;
71290;SDS011;59073;51.994;4.448;2023-04-01T02:11:08;3.64;;;3.31;;
71290;SDS011;59073;51.994;4.448;2023-04-01T02:16:07;3.98;;;3.64;;
71290;SDS011;59073;51.994;4.448;2023-04-01T02:18:38;3.28;;;3.00;;
71290;SDS011;59073;51.994;4.448;2023-04-01T02:21:05;3.47;;;3.17;;
71290;SDS011;59073;51.994;4.448;2023-04-01T02:23:34;2.95;;;2.70;;
71290;SDS011;59073;51.994;4.448;2023-04-01T02:26:02;2.83;;;2.62;;
71290;SDS011;59073;51.994;4.448;2023-04-01T02:28:32;3.08;;;2.90;;
71290;SDS011;59073;51.994;4.448;2023-04-01T02:31:01;2.56;;;2.47;;
71290;SDS011;59073;51.994;4.448;2023-04-01T02:33:28;2.63;;;2.52;;
71290;SDS011;59073;51.994;4.448;2023-04-01T02:35:55;2.73;;;2.65;;
71290;SDS011;59073;51.994;4.448;2023-04-01T02:38:22;2.74;;;2.64;;
71290;SDS011;59073;51.994;4.448;2023-04-01T02:40:49;3.31;;;3.23;;
71290;SDS011;59073;51.994;4.448;2023-04-01T02:43:20;3.38;;;3.34;;
71290;SDS011;59073;51.994;4.448;2023-04-01T02:45:46;3.24;;;3.22;;
71290;SDS011;59073;51.994;4.448;2023-04-01T02:48:11;3.05;;;3.05;;
71290;SDS011;59073;51.994;4.448;2023-04-01T02:50:39;3.19;;;3.19;;
71290;SDS011;59073;51.994;4.448;2023-04-01T02:53:05;3.67;;;3.66;;
71290;SDS011;59073;51.994;4.448;2023-04-01T02:55:31;4.12;;;4.10;;
71290;SDS011;59073;51.994;4.448;2023-04-01T02:57:57;4.78;;;4.77;;
71290;SDS011;59073;51.994;4.448;2023-04-01T03:00:23;5.09;;;5.09;;
71290;SDS011;59073;51.994;4.448;2023-04-01T03:02:49;5.24;;;5.23;;
71290;SDS011;59073;51.994;4.448;2023-04-01T03:05:14;5.52;;;5.44;;
71290;SDS011;59073;51.994;4.448;2023-04-01T03:07:40;5.88;;;5.80;;
71290;SDS011;59073;51.994;4.448;2023-04-01T03:10:06;6.12;;;6.03;;
71290;SDS011;59073;51.994;4.448;2023-04-01T03:12:32;6.34;;;6.25;;
71290;SDS011;59073;51.994;4.448;2023-04-01T03:14:58;6.87;;;6.79;;
71290;SDS011;59073;51.994;4.448;2023-04-01T03:17:23;7.60;;;7.44;;
71290;SDS011;59073;51.994;4.448;2023-04-01T03:19:49;7.99;;;7.85;;
71290;SDS011;59073;51.994;4.448;2023-04-01T03:22:14;7.94;;;7.83;;
71290;SDS011;59073;51.994;4.448;2023-04-01T03:24:40;8.35;;;8.24;;
71290;SDS011;59073;51.994;4.448;2023-04-01T03:27:05;7.81;;;7.69;;
71290;SDS011;59073;51.994;4.448;2023-04-01T03:29:31;7.55;;;7.39;;
71290;SDS011;59073;51.994;4.448;2023-04-01T03:31:56;8.09;;;7.92;;
71290;SDS011;59073;51.994;4.448;2023-04-01T03:34:23;7.96;;;7.80;;
71290;SDS011;59073;51.994;4.448;2023-04-01T03:36:49;7.63;;;7.45;;
71290;SDS011;59073;51.994;4.448;2023-04-01T03:39:16;8.48;;;8.29;;
71290;SDS011;59073;51.994;4.448;2023-04-01T03:41:43;7.95;;;7.70;;
71290;SDS011;59073;51.994;4.448;2023-04-01T03:44:10;7.56;;;7.27;;
71290;SDS011;59073;51.994;4.448;2023-04-01T03:46:35;6.96;;;6.71;;
71290;SDS011;59073;51.994;4.448;2023-04-01T03:49:01;7.70;;;7.47;;
71290;SDS011;59073;51.994;4.448;2023-04-01T03:51:27;7.74;;;7.39;;
71290;SDS011;59073;51.994;4.448;2023-04-01T03:53:53;7.73;;;7.38;;
71290;SDS011;59073;51.994;4.448;2023-04-01T03:56:18;8.04;;;7.79;;
71290;SDS011;59073;51.994;4.448;2023-04-01T03:58:44;8.54;;;8.20;;
71290;SDS011;59073;51.994;4.448;2023-04-01T04:01:16;8.64;;;8.35;;
71290;SDS011;59073;51.994;4.448;2023-04-01T04:03:45;7.87;;;7.61;;
71290;SDS011;59073;51.994;4.448;2023-04-01T04:06:11;8.18;;;7.94;;
71290;SDS011;59073;51.994;4.448;2023-04-01T04:08:38;7.82;;;7.59;;
71290;SDS011;59073;51.994;4.448;2023-04-01T04:11:04;8.28;;;7.95;;
71290;SDS011;59073;51.994;4.448;2023-04-01T04:13:30;8.14;;;7.86;;
71290;SDS011;59073;51.994;4.448;2023-04-01T04:15:55;7.50;;;7.26;;
71290;SDS011;59073;51.994;4.448;2023-04-01T04:18:21;7.34;;;7.16;;
71290;SDS011;59073;51.994;4.448;2023-04-01T04:20:46;8.17;;;7.87;;
71290;SDS011;59073;51.994;4.448;2023-04-01T04:23:16;7.93;;;7.68;;
71290;SDS011;59073;51.994;4.448;2023-04-01T04:25:53;8.77;;;8.43;;
71290;SDS011;59073;51.994;4.448;2023-04-01T04:28:26;8.11;;;7.90;;
71290;SDS011;59073;51.994;4.448;2023-04-01T04:30:53;7.68;;;7.58;;
71290;SDS011;59073;51.994;4.448;2023-04-01T04:33:18;7.27;;;7.22;;
71290;SDS011;59073;51.994;4.448;2023-04-01T04:35:44;7.43;;;7.34;;
71290;SDS011;59073;51.994;4.448;2023-04-01T04:38:10;8.12;;;8.06;;
71290;SDS011;59073;51.994;4.448;2023-04-01T04:40:36;8.35;;;8.29;;
71290;SDS011;59073;51.994;4.448;2023-04-01T04:43:02;7.22;;;7.19;;
71290;SDS011;59073;51.994;4.448;2023-04-01T04:45:28;7.94;;;7.81;;
71290;SDS011;59073;51.994;4.448;2023-04-01T04:47:53;7.57;;;7.48;;
71290;SDS011;59073;51.994;4.448;2023-04-01T04:50:19;7.56;;;7.50;;
71290;SDS011;59073;51.994;4.448;2023-04-01T04:52:45;7.50;;;7.41;;
71290;SDS011;59073;51.994;4.448;2023-04-01T04:55:10;6.97;;;6.91;;
71290;SDS011;59073;51.994;4.448;2023-04-01T04:57:36;7.50;;;7.44;;
71290;SDS011;59073;51.994;4.448;2023-04-01T05:00:01;7.19;;;7.10;;
71290;SDS011;59073;51.994;4.448;2023-04-01T05:02:27;7.28;;;7.25;;
71290;SDS011;59073;51.994;4.448;2023-04-01T05:04:53;7.58;;;7.56;;
71290;SDS011;59073;51.994;4.448;2023-04-01T05:07:18;8.05;;;7.99;;
71290;SDS011;59073;51.994;4.448;2023-04-01T05:09:44;7.56;;;7.52;;
71290;SDS011;59073;51.994;4.448;2023-04-01T05:12:10;8.20;;;8.14;;
71290;SDS011;59073;51.994;4.448;2023-04-01T05:14:38;8.21;;;8.16;;
71290;SDS011;59073;51.994;4.448;2023-04-01T05:17:03;8.89;;;8.85;;
71290;SDS011;59073;51.994;4.448;2023-04-01T05:19:29;7.99;;;7.94;;
71290;SDS011;59073;51.994;4.448;2023-04-01T05:21:55;8.34;;;8.31;;
71290;SDS011;59073;51.994;4.448;2023-04-01T05:24:20;9.02;;;9.01;;
71290;SDS011;59073;51.994;4.448;2023-04-01T05:26:45;8.59;;;8.54;;
71290;SDS011;59073;51.994;4.448;2023-04-01T05:29:11;7.71;;;7.68;;
71290;SDS011;59073;51.994;4.448;2023-04-01T05:31:36;8.51;;;8.45;;
71290;SDS011;59073;51.994;4.448;2023-04-01T05:34:02;8.05;;;7.96;;
71290;SDS011;59073;51.994;4.448;2023-04-01T05:36:27;8.69;;;8.52;;
71290;SDS011;59073;51.994;4.448;2023-04-01T05:38:54;8.43;;;8.33;;
71290;SDS011;59073;51.994;4.448;2023-04-01T05:41:21;7.76;;;7.67;;
71290;SDS011;59073;51.994;4.448;2023-04-01T05:43:46;8.44;;;8.24;;
71290;SDS011;59073;51.994;4.448;2023-04-01T05:46:12;7.87;;;7.70;;
71290;SDS011;59073;51.994;4.448;2023-04-01T05:48:37;8.54;;;8.39;;
71290;SDS011;59073;51.994;4.448;2023-04-01T05:51:03;8.41;;;8.31;;
71290;SDS011;59073;51.994;4.448;2023-04-01T05:53:29;6.74;;;6.71;;
71290;SDS011;59073;51.994;4.448;2023-04-01T05:55:55;7.08;;;7.05;;
71290;SDS011;59073;51.994;4.448;2023-04-01T05:58:20;7.51;;;7.47;;
71290;SDS011;59073;51.994;4.448;2023-04-01T06:00:46;7.06;;;6.98;;
71290;SDS011;59073;51.994;4.448;2023-04-01T06:03:11;7.08;;;6.99;;
71290;SDS011;59073;51.994;4.448;2023-04-01T06:05:38;6.93;;;6.90;;
71290;SDS011;59073;51.994;4.448;2023-04-01T06:08:09;8.18;;;8.09;;
71290;SDS011;59073;51.994;4.448;2023-04-01T06:16:15;8.28;;;8.26;;
71290;SDS011;59073;51.994;4.448;2023-04-01T06:19:11;9.93;;;9.92;;
71290;SDS011;59073;51.994;4.448;2023-04-01T06:21:53;7.39;;;7.39;;
71290;SDS011;59073;51.994;4.448;2023-04-01T06:24:48;8.92;;;8.90;;
71290;SDS011;59073;51.994;4.448;2023-04-01T06:27:41;8.74;;;8.70;;
71290;SDS011;59073;51.994;4.448;2023-04-01T06:30:29;8.25;;;8.25;;
71290;SDS011;59073;51.994;4.448;2023-04-01T06:36:06;8.11;;;8.11;;
71290;SDS011;59073;51.994;4.448;2023-04-01T06:45:02;8.32;;;8.31;;
71290;SDS011;59073;51.994;4.448;2023-04-01T06:47:56;7.51;;;7.43;;
71290;SDS011;59073;51.994;4.448;2023-04-01T06:56:14;7.27;;;7.26;;
71290;SDS011;59073;51.994;4.448;2023-04-01T06:58:45;6.75;;;6.73;;
71290;SDS011;59073;51.994;4.448;2023-04-01T07:01:18;6.10;;;6.10;;
71290;SDS011;59073;51.994;4.448;2023-04-01T07:03:57;5.96;;;5.94;;
71290;SDS011;59073;51.994;4.448;2023-04-01T07:06:40;5.55;;;5.55;;
71290;SDS011;59073;51.994;4.448;2023-04-01T07:09:17;5.20;;;5.19;;
71290;SDS011;59073;51.994;4.448;2023-04-01T07:11:47;5.06;;;5.05;;
71290;SDS011;59073;51.994;4.448;2023-04-01T07:14:16;4.94;;;4.94;;
71290;SDS011;59073;51.994;4.448;2023-04-01T07:17:06;3.92;;;3.92;;
71290;SDS011;59073;51.994;4.448;2023-04-01T07:24:56;3.88;;;3.88;;
71290;SDS011;59073;51.994;4.448;2023-04-01T07:27:30;3.65;;;3.65;;
71290;SDS011;59073;51.994;4.448;2023-04-01T07:29:56;3.11;;;3.11;;
71290;SDS011;59073;51.994;4.448;2023-04-01T07:32:25;3.17;;;3.17;;
71290;SDS011;59073;51.994;4.448;2023-04-01T07:38:59;3.76;;;3.75;;
71290;SDS011;59073;51.994;4.448;2023-04-01T07:41:23;4.35;;;4.32;;
71290;SDS011;59073;51.994;4.448;2023-04-01T07:44:08;4.49;;;4.49;;
71290;SDS011;59073;51.994;4.448;2023-04-01T07:47:19;4.89;;;4.88;;
71290;SDS011;59073;51.994;4.448;2023-04-01T07:50:34;4.80;;;4.78;;
71290;SDS011;59073;51.994;4.448;2023-04-01T07:59:09;5.21;;;5.15;;
71290;SDS011;59073;51.994;4.448;2023-04-01T08:05:22;5.61;;;5.53;;
71290;SDS011;59073;51.994;4.448;2023-04-01T08:07:44;5.65;;;5.61;;
71290;SDS011;59073;51.994;4.448;2023-04-01T08:10:33;6.14;;;6.11;;
71290;SDS011;59073;51.994;4.448;2023-04-01T08:13:17;6.44;;;6.37;;
71290;SDS011;59073;51.994;4.448;2023-04-01T08:16:05;6.85;;;6.75;;
71290;SDS011;59073;51.994;4.448;2023-04-01T08:18:54;6.85;;;6.74;;
71290;SDS011;59073;51.994;4.448;2023-04-01T08:21:37;7.58;;;7.42;;
71290;SDS011;59073;51.994;4.448;2023-04-01T08:24:26;7.89;;;7.70;;
71290;SDS011;59073;51.994;4.448;2023-04-01T08:26:59;7.37;;;7.18;;
71290;SDS011;59073;51.994;4.448;2023-04-01T08:29:41;7.14;;;6.98;;
71290;SDS011;59073;51.994;4.448;2023-04-01T08:32:18;7.49;;;7.30;;
71290;SDS011;59073;51.994;4.448;2023-04-01T08:35:07;8.08;;;7.80;;
71290;SDS011;59073;51.994;4.448;2023-04-01T08:38:05;8.70;;;8.36;;
71290;SDS011;59073;51.994;4.448;2023-04-01T08:46:19;7.87;;;7.62;;
71290;SDS011;59073;51.994;4.448;2023-04-01T08:49:15;7.53;;;7.24;;
71290;SDS011;59073;51.994;4.448;2023-04-01T08:55:02;6.59;;;6.52;;
71290;SDS011;59073;51.994;4.448;2023-04-01T08:58:04;6.76;;;6.73;;
71290;SDS011;59073;51.994;4.448;2023-04-01T09:00:44;5.55;;;5.52;;
71290;SDS011;59073;51.994;4.448;2023-04-01T09:06:44;4.87;;;4.84;;
71290;SDS011;59073;51.994;4.448;2023-04-01T09:18:15;6.73;;;6.65;;
71290;SDS011;59073;51.994;4.448;2023-04-01T09:21:10;7.03;;;6.93;;
71290;SDS011;59073;51.994;4.448;2023-04-01T09:24:08;7.42;;;7.37;;
71290;SDS011;59073;51.994;4.448;2023-04-01T09:29:49;8.11;;;8.01;;
71290;SDS011;59073;51.994;4.448;2023-04-01T09:35:39;9.15;;;8.90;;
71290;SDS011;59073;51.994;4.448;2023-04-01T09:38:21;8.23;;;8.07;;
71290;SDS011;59073;51.994;4.448;2023-04-01T09:43:25;7.53;;;7.20;;
71290;SDS011;59073;51.994;4.448;2023-04-01T09:47:07;8.54;;;8.16;;
71290;SDS011;59073;51.994;4.448;2023-04-01T09:52:02;8.40;;;8.07;;
71290;SDS011;59073;51.994;4.448;2023-04-01T10:00:52;5.84;;;5.60;;
71290;SDS011;59073;51.994;4.448;2023-04-01T10:03:02;4.92;;;4.84;;
71290;SDS011;59073;51.994;4.448;2023-04-01T10:08:38;4.31;;;4.26;;
71290;SDS011;59073;51.994;4.448;2023-04-01T10:17:15;5.56;;;5.52;;
71290;SDS011;59073;51.994;4.448;2023-04-01T10:20:12;5.13;;;5.09;;
71290;SDS011;59073;51.994;4.448;2023-04-01T10:23:00;5.80;;;5.75;;
71290;SDS011;59073;51.994;4.448;2023-04-01T10:26:08;5.93;;;5.89;;
71290;SDS011;59073;51.994;4.448;2023-04-01T10:34:16;6.24;;;6.13;;
71290;SDS011;59073;51.994;4.448;2023-04-01T10:40:03;5.27;;;5.18;;
71290;SDS011;59073;51.994;4.448;2023-04-01T10:54:21;6.07;;;5.93;;
71290;SDS011;59073;51.994;4.448;2023-04-01T11:41:33;9.94;;;8.96;;
71290;SDS011;59073;51.994;4.448;2023-04-01T11:47:04;8.10;;;7.68;;
71290;SDS011;59073;51.994;4.448;2023-04-01T11:49:53;6.71;;;6.35;;
71290;SDS011;59073;51.994;4.448;2023-04-01T11:55:55;8.11;;;7.65;;
71290;SDS011;59073;51.994;4.448;2023-04-01T12:04:41;6.22;;;5.87;;
71290;SDS011;59073;51.994;4.448;2023-04-01T12:07:22;5.64;;;5.35;;
71290;SDS011;59073;51.994;4.448;2023-04-01T12:10:27;5.91;;;5.65;;
71290;SDS011;59073;51.994;4.448;2023-04-01T12:13:22;5.30;;;5.10;;
71290;SDS011;59073;51.994;4.448;2023-04-01T12:16:07;6.58;;;6.35;;
71290;SDS011;59073;51.994;4.448;2023-04-01T12:18:53;5.99;;;5.72;;
71290;SDS011;59073;51.994;4.448;2023-04-01T12:21:35;6.95;;;6.64;;
71290;SDS011;59073;51.994;4.448;2023-04-01T12:32:28;5.73;;;5.46;;
71290;SDS011;59073;51.994;4.448;2023-04-01T12:35:21;5.59;;;5.39;;
71290;SDS011;59073;51.994;4.448;2023-04-01T12:37:57;5.34;;;5.16;;
71290;SDS011;59073;51.994;4.448;2023-04-01T12:40:51;5.82;;;5.59;;
71290;SDS011;59073;51.994;4.448;2023-04-01T12:46:40;6.23;;;6.11;;
71290;SDS011;59073;51.994;4.448;2023-04-01T12:52:08;5.70;;;5.63;;
71290;SDS011;59073;51.994;4.448;2023-04-01T12:57:12;5.98;;;5.88;;
71290;SDS011;59073;51.994;4.448;2023-04-01T13:07:57;6.07;;;5.98;;
71290;SDS011;59073;51.994;4.448;2023-04-01T13:10:37;6.87;;;6.74;;
71290;SDS011;59073;51.994;4.448;2023-04-01T13:13:30;6.61;;;6.39;;
71290;SDS011;59073;51.994;4.448;2023-04-01T13:16:14;6.86;;;6.68;;
71290;SDS011;59073;51.994;4.448;2023-04-01T13:24:53;6.84;;;6.76;;
71290;SDS011;59073;51.994;4.448;2023-04-01T13:27:43;6.21;;;6.14;;
71290;SDS011;59073;51.994;4.448;2023-04-01T13:32:44;5.59;;;5.56;;
71290;SDS011;59073;51.994;4.448;2023-04-01T13:38:00;4.85;;;4.79;;
71290;SDS011;59073;51.994;4.448;2023-04-01T13:43:45;4.55;;;4.54;;
71290;SDS011;59073;51.994;4.448;2023-04-01T14:09:25;4.66;;;4.60;;
71290;SDS011;59073;51.994;4.448;2023-04-01T14:15:18;4.23;;;4.20;;
71290;SDS011;59073;51.994;4.448;2023-04-01T14:23:42;4.52;;;4.51;;
71290;SDS011;59073;51.994;4.448;2023-04-01T14:35:09;4.78;;;4.60;;
71290;SDS011;59073;51.994;4.448;2023-04-01T14:40:22;4.19;;;4.10;;
71290;SDS011;59073;51.994;4.448;2023-04-01T14:48:37;3.74;;;3.63;;
71290;SDS011;59073;51.994;4.448;2023-04-01T14:51:22;4.08;;;3.87;;
71290;SDS011;59073;51.994;4.448;2023-04-01T14:54:08;3.96;;;3.74;;
71290;SDS011;59073;51.994;4.448;2023-04-01T14:56:48;4.01;;;3.76;;
71290;SDS011;59073;51.994;4.448;2023-04-01T14:59:25;3.92;;;3.68;;
71290;SDS011;59073;51.994;4.448;2023-04-01T15:02:03;3.92;;;3.74;;
71290;SDS011;59073;51.994;4.448;2023-04-01T15:08:08;4.31;;;4.06;;
71290;SDS011;59073;51.994;4.448;2023-04-01T15:10:45;4.40;;;4.11;;
71290;SDS011;59073;51.994;4.448;2023-04-01T15:16:46;4.61;;;4.30;;
71290;SDS011;59073;51.994;4.448;2023-04-01T15:21:48;3.98;;;3.80;;
71290;SDS011;59073;51.994;4.448;2023-04-01T15:24:42;3.82;;;3.60;;
71290;SDS011;59073;51.994;4.448;2023-04-01T15:33:08;4.62;;;4.32;;
71290;SDS011;59073;51.994;4.448;2023-04-01T15:35:57;4.69;;;4.36;;
71290;SDS011;59073;51.994;4.448;2023-04-01T15:41:16;4.73;;;4.47;;
71290;SDS011;59073;51.994;4.448;2023-04-01T15:43:53;4.62;;;4.32;;
71290;SDS011;59073;51.994;4.448;2023-04-01T15:49:37;4.84;;;4.64;;
71290;SDS011;59073;51.994;4.448;2023-04-01T15:57:33;5.07;;;4.93;;
71290;SDS011;59073;51.994;4.448;2023-04-01T16:02:49;4.65;;;4.58;;
71290;SDS011;59073;51.994;4.448;2023-04-01T16:05:37;4.52;;;4.45;;
71290;SDS011;59073;51.994;4.448;2023-04-01T16:11:14;4.52;;;4.38;;
71290;SDS011;59073;51.994;4.448;2023-04-01T16:22:27;4.47;;;4.43;;
71290;SDS011;59073;51.994;4.448;2023-04-01T16:25:20;4.27;;;4.21;;
71290;SDS011;59073;51.994;4.448;2023-04-01T16:28:24;4.27;;;4.21;;
71290;SDS011;59073;51.994;4.448;2023-04-01T16:31:13;4.03;;;3.99;;
71290;SDS011;59073;51.994;4.448;2023-04-01T16:36:49;4.65;;;4.56;;
71290;SDS011;59073;51.994;4.448;2023-04-01T16:39:28;5.04;;;5.03;;
71290;SDS011;59073;51.994;4.448;2023-04-01T16:42:13;4.93;;;4.93;;
71290;SDS011;59073;51.994;4.448;2023-04-01T16:47:41;6.82;;;6.82;;
71290;SDS011;59073;51.994;4.448;2023-04-01T16:50:19;7.93;;;7.91;;
71290;SDS011;59073;51.994;4.448;2023-04-01T16:53:09;6.74;;;6.66;;
71290;SDS011;59073;51.994;4.448;2023-04-01T16:58:09;4.48;;;4.48;;
71290;SDS011;59073;51.994;4.448;2023-04-01T17:00:55;4.88;;;4.88;;
71290;SDS011;59073;51.994;4.448;2023-04-01T17:03:30;5.06;;;5.06;;
71290;SDS011;59073;51.994;4.448;2023-04-01T17:14:28;5.18;;;5.18;;
71290;SDS011;59073;51.994;4.448;2023-04-01T17:19:40;4.89;;;4.89;;
71290;SDS011;59073;51.994;4.448;2023-04-01T17:22:34;4.61;;;4.61;;
71290;SDS011;59073;51.994;4.448;2023-04-01T17:25:25;4.93;;;4.93;;
71290;SDS011;59073;51.994;4.448;2023-04-01T17:28:15;5.09;;;5.09;;
71290;SDS011;59073;51.994;4.448;2023-04-01T17:40:26;4.63;;;4.63;;
71290;SDS011;59073;51.994;4.448;2023-04-01T17:43:19;4.98;;;4.98;;
71290;SDS011;59073;51.994;4.448;2023-04-01T17:45:57;4.99;;;4.99;;
71290;SDS011;59073;51.994;4.448;2023-04-01T17:48:41;4.57;;;4.57;;
71290;SDS011;59073;51.994;4.448;2023-04-01T17:51:48;4.92;;;4.92;;
71290;SDS011;59073;51.994;4.448;2023-04-01T17:54:29;4.80;;;4.80;;
71290;SDS011;59073;51.994;4.448;2023-04-01T17:59:37;4.29;;;4.29;;
71290;SDS011;59073;51.994;4.448;2023-04-01T18:04:53;4.98;;;4.98;;
71290;SDS011;59073;51.994;4.448;2023-04-01T18:07:51;5.15;;;5.15;;
71290;SDS011;59073;51.994;4.448;2023-04-01T18:10:40;4.55;;;4.55;;
71290;SDS011;59073;51.994;4.448;2023-04-01T18:21:39;4.69;;;4.69;;
71290;SDS011;59073;51.994;4.448;2023-04-01T18:24:31;4.60;;;4.60;;
71290;SDS011;59073;51.994;4.448;2023-04-01T18:29:51;5.08;;;5.08;;
71290;SDS011;59073;51.994;4.448;2023-04-01T18:32:26;4.89;;;4.89;;
71290;SDS011;59073;51.994;4.448;2023-04-01T18:35:19;4.70;;;4.70;;
71290;SDS011;59073;51.994;4.448;2023-04-01T18:40:38;4.70;;;4.70;;
71290;SDS011;59073;51.994;4.448;2023-04-01T18:43:30;5.05;;;5.05;;
71290;SDS011;59073;51.994;4.448;2023-04-01T18:46:12;4.80;;;4.80;;
71290;SDS011;59073;51.994;4.448;2023-04-01T18:54:12;4.46;;;4.46;;
71290;SDS011;59073;51.994;4.448;2023-04-01T18:56:48;4.44;;;4.44;;
71290;SDS011;59073;51.994;4.448;2023-04-01T18:59:18;4.58;;;4.58;;
71290;SDS011;59073;51.994;4.448;2023-04-01T19:04:23;4.48;;;4.48;;
71290;SDS011;59073;51.994;4.448;2023-04-01T19:06:54;4.57;;;4.57;;
71290;SDS011;59073;51.994;4.448;2023-04-01T19:12:20;4.59;;;4.59;;
71290;SDS011;59073;51.994;4.448;2023-04-01T19:15:02;4.19;;;4.19;;
71290;SDS011;59073;51.994;4.448;2023-04-01T19:20:36;4.22;;;4.22;;
71290;SDS011;59073;51.994;4.448;2023-04-01T19:32:24;4.70;;;4.70;;
71290;SDS011;59073;51.994;4.448;2023-04-01T19:37:36;4.34;;;4.34;;
71290;SDS011;59073;51.994;4.448;2023-04-01T19:40:20;4.56;;;4.56;;
71290;SDS011;59073;51.994;4.448;2023-04-01T19:43:10;4.17;;;4.17;;
71290;SDS011;59073;51.994;4.448;2023-04-01T19:45:55;4.36;;;4.36;;
71290;SDS011;59073;51.994;4.448;2023-04-01T19:51:37;4.62;;;4.62;;
71290;SDS011;59073;51.994;4.448;2023-04-01T19:54:20;4.79;;;4.79;;
71290;SDS011;59073;51.994;4.448;2023-04-01T19:56:57;4.86;;;4.86;;
71290;SDS011;59073;51.994;4.448;2023-04-01T19:59:33;4.54;;;4.54;;
71290;SDS011;59073;51.994;4.448;2023-04-01T20:05:03;4.91;;;4.91;;
71290;SDS011;59073;51.994;4.448;2023-04-01T20:07:54;5.02;;;5.02;;
71290;SDS011;59073;51.994;4.448;2023-04-01T20:10:45;5.44;;;5.44;;
71290;SDS011;59073;51.994;4.448;2023-04-01T20:16:00;5.66;;;5.66;;
71290;SDS011;59073;51.994;4.448;2023-04-01T20:18:34;5.72;;;5.72;;
71290;SDS011;59073;51.994;4.448;2023-04-01T20:21:15;5.86;;;5.86;;
71290;SDS011;59073;51.994;4.448;2023-04-01T20:23:59;5.76;;;5.76;;
71290;SDS011;59073;51.994;4.448;2023-04-01T20:26:53;6.14;;;6.14;;
71290;SDS011;59073;51.994;4.448;2023-04-01T20:29:39;5.50;;;5.50;;
71290;SDS011;59073;51.994;4.448;2023-04-01T20:35:22;5.26;;;5.26;;
71290;SDS011;59073;51.994;4.448;2023-04-01T20:44:08;5.56;;;5.56;;
71290;SDS011;59073;51.994;4.448;2023-04-01T20:46:52;5.73;;;5.73;;
71290;SDS011;59073;51.994;4.448;2023-04-01T20:49:54;6.54;;;6.54;;
71290;SDS011;59073;51.994;4.448;2023-04-01T20:52:56;6.60;;;6.60;;
71290;SDS011;59073;51.994;4.448;2023-04-01T21:03:47;6.71;;;6.71;;
71290;SDS011;59073;51.994;4.448;2023-04-01T21:06:29;5.84;;;5.84;;
71290;SDS011;59073;51.994;4.448;2023-04-01T21:09:23;5.37;;;5.37;;
71290;SDS011;59073;51.994;4.448;2023-04-01T21:15:16;4.79;;;4.79;;
71290;SDS011;59073;51.994;4.448;2023-04-01T21:18:08;4.99;;;4.99;;
71290;SDS011;59073;51.994;4.448;2023-04-01T21:37:06;5.82;;;5.82;;
71290;SDS011;59073;51.994;4.448;2023-04-01T21:48:05;4.84;;;4.84;;
71290;SDS011;59073;51.994;4.448;2023-04-01T21:51:33;5.43;;;5.43;;
71290;SDS011;59073;51.994;4.448;2023-04-01T22:00:17;4.75;;;4.75;;
71290;SDS011;59073;51.994;4.448;2023-04-01T22:08:41;4.98;;;4.98;;
71290;SDS011;59073;51.994;4.448;2023-04-01T22:11:19;4.79;;;4.79;;
71290;SDS011;59073;51.994;4.448;2023-04-01T22:16:59;4.70;;;4.70;;
71290;SDS011;59073;51.994;4.448;2023-04-01T22:22:27;4.79;;;4.79;;
71290;SDS011;59073;51.994;4.448;2023-04-01T22:25:25;4.92;;;4.92;;
71290;SDS011;59073;51.994;4.448;2023-04-01T22:28:05;4.85;;;4.85;;
71290;SDS011;59073;51.994;4.448;2023-04-01T22:33:39;4.90;;;4.90;;
71290;SDS011;59073;51.994;4.448;2023-04-01T22:47:38;5.16;;;5.16;;
71290;SDS011;59073;51.994;4.448;2023-04-01T22:50:40;5.68;;;5.66;;
71290;SDS011;59073;51.994;4.448;2023-04-01T22:53:31;5.88;;;5.88;;
71290;SDS011;59073;51.994;4.448;2023-04-01T22:56:07;6.29;;;6.25;;
71290;SDS011;59073;51.994;4.448;2023-04-01T22:58:42;6.12;;;6.12;;
71290;SDS011;59073;51.994;4.448;2023-04-01T23:01:16;6.05;;;6.05;;
71290;SDS011;59073;51.994;4.448;2023-04-01T23:03:49;5.92;;;5.92;;
71290;SDS011;59073;51.994;4.448;2023-04-01T23:06:24;6.16;;;6.16;;
71290;SDS011;59073;51.994;4.448;2023-04-01T23:11:48;5.81;;;5.80;;
71290;SDS011;59073;51.994;4.448;2023-04-01T23:20:15;6.61;;;6.61;;
71290;SDS011;59073;51.994;4.448;2023-04-01T23:25:40;6.21;;;6.21;;
71290;SDS011;59073;51.994;4.448;2023-04-01T23:33:53;6.43;;;6.43;;
71290;SDS011;59073;51.994;4.448;2023-04-01T23:36:20;6.74;;;6.74;;
71290;SDS011;59073;51.994;4.448;2023-04-01T23:38:47;6.27;;;6.27;;
71290;SDS011;59073;51.994;4.448;2023-04-01T23:41:48;6.90;;;6.90;;
71290;SDS011;59073;51.994;4.448;2023-04-01T23:44:10;7.41;;;7.41;;
71290;SDS011;59073;51.994;4.448;2023-04-01T23:46:39;7.04;;;7.04;;